Estación Meteorológica Peña el Pijo (Robertgarden) [ 07/07/20 09:50:58 CEST ]

Fecha Hora Presion(HPa) Temp (°C) Humedad % Rocio (°C) Viento ( m/s) Direccion Lluvia 1Hora(mm) Lluvia 24H(mm) LLuvia Total(mm)
2020-Jun-30 01:01:27 1010.500 16.6 56 7.8         48.69
2020-Jun-30 02:01:19 1010.100 15.3 59 7.3         48.69
2020-Jun-30 03:01:14 1009.600 14.2 63 7.2         48.69
2020-Jun-30 04:01:33 1009.300 13.3 66 7.1         48.69
2020-Jun-30 05:01:23 1009.100 13.3 66 7.1         48.69
2020-Jun-30 06:01:53 1008.700 12.9 65 6.4         48.69
2020-Jun-30 07:01:15 1008.700 12.8 68 7.0         48.69
2020-Jun-30 08:01:20 1008.800 13.9 68 8.1         48.69
2020-Jun-30 09:01:18 1009.000 19.2 61 11.5         48.69
2020-Jun-30 10:01:17 1008.900 24.9 47 12.8         48.69
2020-Jun-30 11:01:57 1008.700 30.6 32 12.0         48.69
2020-Jun-30 12:01:53 1008.600 33.6 24 10.0         48.69
2020-Jun-30 13:01:45 1008.500 34.6 24 10.8         48.69
2020-Jun-30 14:01:55 1008.200 34.2 23 9.9         48.69
2020-Jun-30 15:01:43 1007.700 34.9 21 9.2 1.4 NNE     48.69
2020-Jun-30 16:01:46 1007.300 35.6 21 9.8         48.69
2020-Jun-30 17:01:47 1006.800 38.8 20 11.8         48.69
2020-Jun-30 18:01:40 1006.700 36.3 22 11.1         48.69
2020-Jun-30 19:01:50 1006.300 34.9 25 11.7         48.69
2020-Jun-30 20:01:51 1006.500 32.5 30 12.8         48.69
2020-Jun-30 21:01:31 1006.900 28.9 35 11.8         48.69
2020-Jun-30 22:01:56 1007.700 25.6 42 11.7         48.69
2020-Jun-30 23:01:53 1008.100 21.9 52 11.6         48.69

Temperatura Máxima:38°    Temperatura Mínima:12°
Presión Máxima:1010.500 Hpa    Presión Mínima:1006.300 Hpa


Volver